Time;durP1;ratioP1;P1;durP2;ratioP2;P2;SDS_P1;SDS_P2;PMS_P1;PMS_P2;Temp;Humidity;BMP_temperature;BMP_pressure;BME280_temperature;BME280_humidity;BME280_pressure;Samples;Min_cycle;Max_cycle;Signal;HPM_P1;HPM_P2
2022/03/21 00:01:20;;;;;;;;;5.00;4.67;;;;;-146.25;100.00;57879.81;5036960;28;45750;-75
2022/03/21 00:03:46;;;;;;;;;4.00;4.00;;;;;-146.25;100.00;57879.81;5017760;28;46763;-76
2022/03/21 00:06:12;;;;;;;;;4.00;4.00;;;;;-146.25;100.00;57879.81;5036713;28;45502;-76
2022/03/21 00:08:38;;;;;;;;;5.00;4.00;;;;;-146.25;100.00;57879.81;5036850;28;45509;-74
2022/03/21 00:11:04;;;;;;;;;6.00;5.00;;;;;-146.25;100.00;57879.81;5037146;28;45382;-75
2022/03/21 00:13:30;;;;;;;;;5.00;4.67;;;;;-146.25;100.00;57879.81;5036418;28;46066;-75
2022/03/21 00:15:56;;;;;;;;;5.00;4.33;;;;;-146.25;100.00;57879.81;5036514;28;45414;-76
2022/03/21 00:18:23;;;;;;;;;6.33;5.33;;;;;-146.25;100.00;57879.81;5036682;28;45438;-75
2022/03/21 00:20:53;;;;;;;;;3.33;3.00;;;;;-146.25;100.00;57879.81;5036580;28;45490;-75
2022/03/21 00:23:19;;;;;;;;;4.00;4.00;;;;;-146.25;100.00;57879.81;5036433;28;46410;-75
2022/03/21 00:25:45;;;;;;;;;6.00;5.00;;;;;-146.25;100.00;57879.81;5034604;28;45601;-75
2022/03/21 00:28:12;;;;;;;;;4.00;4.00;;;;;-146.25;100.00;57879.81;5050495;28;45496;-75
2022/03/21 00:30:40;;;;;;;;;5.67;5.67;;;;;-146.25;100.00;57879.81;5036454;28;45873;-75
2022/03/21 00:33:06;;;;;;;;;3.67;3.00;;;;;-146.25;100.00;57879.81;5037609;28;45653;-75
2022/03/21 00:35:32;;;;;;;;;5.67;5.00;;;;;-146.25;100.00;57879.81;5019420;28;46223;-75
2022/03/21 00:37:58;;;;;;;;;5.00;4.00;;;;;-146.25;100.00;57879.81;5036108;28;45893;-76
2022/03/21 00:40:26;;;;;;;;;5.00;3.33;;;;;-146.25;100.00;57879.81;5034806;28;45722;-75
2022/03/21 00:42:52;;;;;;;;;4.00;4.00;;;;;-146.25;100.00;57879.81;5036430;28;45668;-76
2022/03/21 00:45:20;;;;;;;;;6.33;4.67;;;;;-146.25;100.00;57879.81;5034448;28;45861;-75
2022/03/21 00:47:48;;;;;;;;;4.00;3.00;;;;;-146.25;100.00;57879.81;5020742;28;45609;-75
2022/03/21 00:50:16;;;;;;;;;5.25;5.00;;;;;-146.25;100.00;57879.81;5051163;28;45593;-76
2022/03/21 00:52:49;;;;;;;;;6.25;5.75;;;;;-146.25;100.00;57879.81;5019602;28;45785;-76
2022/03/21 00:55:17;;;;;;;;;5.67;4.67;;;;;-146.25;100.00;57879.81;5038595;28;45502;-75
2022/03/21 00:57:43;;;;;;;;;4.00;3.00;;;;;-146.25;100.00;57879.81;5035919;28;45649;-76
2022/03/21 01:00:15;;;;;;;;;6.00;4.00;;;;;-146.25;100.00;57879.81;5036022;28;45491;-75
2022/03/21 01:02:41;;;;;;;;;5.33;3.67;;;;;-146.25;100.00;57879.81;5037554;28;47830;-75
2022/03/21 01:05:08;;;;;;;;;5.67;5.00;;;;;-146.25;100.00;57879.81;5035514;28;45498;-76
2022/03/21 01:07:34;;;;;;;;;3.67;3.00;;;;;-146.25;100.00;57879.81;5035636;28;45590;-75
2022/03/21 01:10:01;;;;;;;;;5.00;4.00;;;;;-146.25;100.00;57879.81;5016564;28;45619;-75
2022/03/21 01:12:27;;;;;;;;;3.33;3.00;;;;;-146.25;100.00;57879.81;5035756;28;45517;-75
2022/03/21 01:14:53;;;;;;;;;3.33;3.00;;;;;-146.25;100.00;57879.81;5035619;28;45792;-76
2022/03/21 01:17:19;;;;;;;;;4.00;3.50;;;;;-146.25;100.00;57879.81;5035587;28;45390;-75
2022/03/21 01:19:45;;;;;;;;;10.00;7.75;;;;;-146.25;100.00;57879.81;5034140;28;45601;-75
2022/03/21 01:22:10;;;;;;;;;5.00;4.00;;;;;-146.25;100.00;57879.81;5035060;28;46339;-75
2022/03/21 01:24:38;;;;;;;;;9.00;7.75;;;;;-146.25;100.00;57879.81;5035247;28;45458;-76
2022/03/21 01:27:04;;;;;;;;;18.75;14.75;;;;;-146.25;100.00;57879.81;5033354;28;45434;-75
2022/03/21 01:29:30;;;;;;;;;22.50;17.50;;;;;-146.25;100.00;57879.81;5018815;28;45557;-75
2022/03/21 01:31:56;;;;;;;;;14.00;12.50;;;;;-146.25;100.00;57879.81;5018841;28;46324;-75
2022/03/21 01:34:22;;;;;;;;;5.67;5.67;;;;;-146.25;100.00;57879.81;5033768;28;45466;-75
2022/03/21 01:36:48;;;;;;;;;26.50;22.50;;;;;-146.25;100.00;57879.81;5035939;28;45998;-75
2022/03/21 01:39:13;;;;;;;;;7.00;6.00;;;;;-146.25;100.00;57879.81;5019205;28;45529;-75
2022/03/21 01:41:39;;;;;;;;;7.33;4.67;;;;;-146.25;100.00;57879.81;5034618;28;46167;-75
2022/03/21 01:44:07;;;;;;;;;9.00;9.00;;;;;-146.25;100.00;57879.81;5035011;28;45440;-74
2022/03/21 01:46:34;;;;;;;;;13.25;11.25;;;;;-146.25;100.00;57879.81;5035518;28;45585;-75
2022/03/21 01:49:00;;;;;;;;;8.67;7.67;;;;;-146.25;100.00;57879.81;5034780;28;45602;-75
2022/03/21 01:51:27;;;;;;;;;12.33;10.00;;;;;-146.25;100.00;57879.81;5034719;28;45492;-75
2022/03/21 01:56:39;;;;;;;;;6.25;3.00;;;;;-146.25;100.00;57879.81;5034302;28;46025;-74
2022/03/21 01:59:07;;;;;;;;;14.75;13.75;;;;;-146.25;100.00;57879.81;5032828;28;45386;-75
2022/03/21 02:01:33;;;;;;;;;8.00;7.00;;;;;-146.25;100.00;57879.81;5034486;28;46062;-75
2022/03/21 02:03:59;;;;;;;;;10.00;8.00;;;;;-146.25;100.00;57879.81;5034664;28;45420;-75
2022/03/21 02:06:28;;;;;;;;;7.00;5.00;;;;;-146.25;100.00;57879.81;5034624;28;45608;-75
2022/03/21 02:08:56;;;;;;;;;5.67;3.00;;;;;-146.25;100.00;57879.81;5019719;28;45812;-75
2022/03/21 02:11:21;;;;;;;;;3.33;3.00;;;;;-146.25;100.00;57879.81;5034812;28;46132;-75
2022/03/21 02:13:48;;;;;;;;;4.00;3.00;;;;;-146.25;100.00;57879.81;5034456;28;45507;-74
2022/03/21 02:16:13;;;;;;;;;5.67;4.67;;;;;-146.25;100.00;57879.81;5032951;28;45553;-75
2022/03/21 02:18:42;;;;;;;;;3.00;3.00;;;;;-146.25;100.00;57879.81;5035194;28;45529;-75
2022/03/21 02:21:24;;;;;;;;;5.00;3.67;;;;;-146.25;100.00;57879.81;5033475;28;47052;-75
2022/03/21 02:24:02;;;;;;;;;3.00;2.33;;;;;-146.25;100.00;57879.81;5034712;28;45518;-75
2022/03/21 02:26:29;;;;;;;;;3.00;2.67;;;;;-146.25;100.00;57879.81;5034527;28;45475;-75
2022/03/21 02:28:57;;;;;;;;;5.00;4.00;;;;;-146.25;100.00;57879.81;5033592;28;45594;-75
2022/03/21 02:31:24;;;;;;;;;4.00;3.00;;;;;-146.25;100.00;57879.81;5030280;28;46228;-75
2022/03/21 02:33:52;;;;;;;;;2.00;2.00;;;;;-146.25;100.00;57879.81;5036850;28;45506;-75
2022/03/21 02:36:20;;;;;;;;;3.00;3.00;;;;;-146.25;100.00;57879.81;5034796;28;45566;-76
2022/03/21 02:38:47;;;;;;;;;6.00;2.00;;;;;-146.25;100.00;57879.81;5045193;28;45515;-75
2022/03/21 02:41:16;;;;;;;;;4.33;4.00;;;;;-146.25;100.00;57879.81;5036257;28;45605;-75
2022/03/21 02:43:53;;;;;;;;;3.67;3.00;;;;;-146.25;100.00;57879.81;5036120;28;45403;-76
2022/03/21 02:46:19;;;;;;;;;2.67;2.00;;;;;-146.25;100.00;57879.81;5036435;28;45903;-75
2022/03/21 02:48:47;;;;;;;;;3.00;2.00;;;;;-146.25;100.00;57879.81;5036779;28;45453;-74
2022/03/21 02:51:13;;;;;;;;;5.00;3.00;;;;;-146.25;100.00;57879.81;5035556;28;45455;-75
2022/03/21 02:53:40;;;;;;;;;3.00;3.00;;;;;-146.25;100.00;57879.81;5034407;28;45664;-73
2022/03/21 02:56:05;;;;;;;;;4.00;3.00;;;;;-146.25;100.00;57879.81;5036420;28;45455;-75
2022/03/21 02:58:31;;;;;;;;;4.00;2.00;;;;;-146.25;100.00;57879.81;5034969;28;45438;-76
2022/03/21 03:01:12;;;;;;;;;3.00;3.00;;;;;-146.25;100.00;57879.81;5051668;28;47041;-76
2022/03/21 03:03:38;;;;;;;;;4.00;3.00;;;;;-146.25;100.00;57879.81;5036490;28;45336;-76
2022/03/21 03:06:04;;;;;;;;;3.00;3.00;;;;;-146.25;100.00;57879.81;5036307;28;45386;-73
2022/03/21 03:08:30;;;;;;;;;3.33;2.67;;;;;-146.25;100.00;57879.81;5035830;28;45292;-76
2022/03/21 03:10:56;;;;;;;;;5.67;3.33;;;;;-146.25;100.00;57879.81;5035680;28;46342;-75
2022/03/21 03:13:22;;;;;;;;;4.67;2.67;;;;;-146.25;100.00;57879.81;5035000;28;45302;-76
2022/03/21 03:15:47;;;;;;;;;3.00;2.75;;;;;-146.25;100.00;57879.81;5034978;28;45480;-76
2022/03/21 03:18:14;;;;;;;;;4.00;2.00;;;;;-146.25;100.00;57879.81;5035313;28;45416;-76
2022/03/21 03:20:50;;;;;;;;;3.33;2.67;;;;;-146.25;100.00;57879.81;5036219;28;46333;-75
2022/03/21 03:23:24;;;;;;;;;3.33;2.00;;;;;-146.25;100.00;57879.81;5036237;28;45256;-76
2022/03/21 03:26:01;;;;;;;;;3.00;3.00;;;;;-146.25;100.00;57879.81;5034641;28;45316;-76
2022/03/21 03:28:27;;;;;;;;;4.67;3.67;;;;;-146.25;100.00;57879.81;5036808;28;45427;-75
2022/03/21 03:30:54;;;;;;;;;4.75;3.50;;;;;-146.25;100.00;57879.81;5036114;28;46186;-75
2022/03/21 03:33:20;;;;;;;;;4.00;3.00;;;;;-146.25;100.00;57879.81;5039440;28;45359;-76
2022/03/21 03:35:47;;;;;;;;;4.00;3.00;;;;;-146.25;100.00;57879.81;5038219;28;45586;-75
2022/03/21 03:38:12;;;;;;;;;3.00;2.67;;;;;-146.25;100.00;57879.81;5039599;28;45460;-75
2022/03/21 03:40:38;;;;;;;;;4.00;3.00;;;;;-146.25;100.00;57879.81;5038963;28;47229;-75
2022/03/21 03:43:04;;;;;;;;;2.67;2.00;;;;;-146.25;100.00;57879.81;5038365;28;45322;-75
2022/03/21 03:45:29;;;;;;;;;3.00;2.00;;;;;-146.25;100.00;57879.81;5038406;28;45561;-75
2022/03/21 03:47:55;;;;;;;;;4.00;3.00;;;;;-146.25;100.00;57879.81;5038649;28;45561;-76
2022/03/21 03:50:20;;;;;;;;;1.33;1.33;;;;;-146.25;100.00;57879.81;5039273;28;45405;-75
2022/03/21 03:52:47;;;;;;;;;2.00;1.67;;;;;-146.25;100.00;57879.81;5039508;28;45381;-75
2022/03/21 03:55:19;;;;;;;;;2.67;2.00;;;;;-146.25;100.00;57879.81;5039700;28;45399;-76
2022/03/21 03:57:45;;;;;;;;;4.00;2.00;;;;;-146.25;100.00;57879.81;5054951;28;45437;-75
2022/03/21 04:00:13;;;;;;;;;3.75;3.00;;;;;-146.25;100.00;57879.81;5037740;28;46490;-75
2022/03/21 04:05:24;;;;;;;;;3.00;2.33;;;;;-146.25;100.00;57879.81;5038383;28;45513;-75
2022/03/21 04:07:50;;;;;;;;;2.00;2.00;;;;;-146.25;100.00;57879.81;5050760;28;45300;-75
2022/03/21 04:10:16;;;;;;;;;2.67;2.67;;;;;-146.25;100.00;57879.81;5026281;28;45570;-75
2022/03/21 04:12:46;;;;;;;;;2.67;2.67;;;;;-146.25;100.00;57879.81;5050315;28;45473;-75
2022/03/21 04:15:12;;;;;;;;;2.00;2.00;;;;;-146.25;100.00;57879.81;5036123;28;45578;-75
2022/03/21 04:17:37;;;;;;;;;4.33;2.00;;;;;-146.25;100.00;57879.81;5038412;28;45497;-76
2022/03/21 04:20:04;;;;;;;;;2.00;2.00;;;;;-146.25;100.00;57879.81;5038069;28;45629;-75
2022/03/21 04:22:30;;;;;;;;;4.00;2.25;;;;;-146.25;100.00;57879.81;5033455;28;45398;-75
2022/03/21 04:24:55;;;;;;;;;1.75;1.75;;;;;-146.25;100.00;57879.81;5018297;28;45443;-75
2022/03/21 04:27:21;;;;;;;;;2.00;2.00;;;;;-146.25;100.00;57879.81;5031348;28;45628;-75
2022/03/21 04:29:46;;;;;;;;;3.00;3.00;;;;;-146.25;100.00;57879.81;5025585;28;46752;-74
2022/03/21 04:32:12;;;;;;;;;3.00;3.00;;;;;-146.25;100.00;57879.81;5023236;28;45422;-76
2022/03/21 04:34:38;;;;;;;;;3.75;2.00;;;;;-146.25;100.00;57879.81;5034414;28;45567;-75
2022/03/21 04:37:04;;;;;;;;;2.00;2.00;;;;;-146.25;100.00;57879.81;5037935;28;45461;-75
2022/03/21 04:39:29;;;;;;;;;3.00;2.00;;;;;-146.25;100.00;57879.81;5037883;28;46309;-75
2022/03/21 04:41:55;;;;;;;;;3.00;2.67;;;;;-146.25;100.00;57879.81;5036318;28;45522;-75
2022/03/21 04:44:20;;;;;;;;;4.00;4.00;;;;;-146.25;100.00;57879.81;5020596;28;45400;-75
2022/03/21 04:46:46;;;;;;;;;2.75;2.75;;;;;-146.25;100.00;57879.81;5036566;28;45664;-75
2022/03/21 04:49:12;;;;;;;;;4.00;2.50;;;;;-146.25;100.00;57879.81;5037424;28;46080;-75
2022/03/21 04:51:37;;;;;;;;;52.50;43.50;;;;;-146.25;100.00;57879.81;5035921;28;45414;-75
2022/03/21 04:54:03;;;;;;;;;57.50;44.75;;;;;-146.25;100.00;57879.81;5035779;28;45513;-75
2022/03/21 04:56:28;;;;;;;;;6.00;6.00;;;;;-146.25;100.00;57879.81;5035542;28;45466;-74
2022/03/21 04:58:54;;;;;;;;;4.00;4.00;;;;;-146.25;100.00;57879.81;5037391;28;46527;-75
2022/03/21 05:01:21;;;;;;;;;11.75;9.00;;;;;-146.25;100.00;57879.81;5037287;28;45395;-74
2022/03/21 05:03:47;;;;;;;;;6.25;5.50;;;;;-146.25;100.00;57879.81;5035682;28;47289;-75
2022/03/21 05:06:14;;;;;;;;;4.00;3.25;;;;;-146.25;100.00;57879.81;5036954;28;45376;-73
2022/03/21 05:08:40;;;;;;;;;4.00;2.33;;;;;-146.25;100.00;57879.81;5037395;28;46371;-75
2022/03/21 05:11:05;;;;;;;;;4.67;4.00;;;;;-146.25;100.00;57879.81;5024701;28;45383;-75
2022/03/21 05:13:31;;;;;;;;;4.00;3.00;;;;;-146.25;100.00;57879.81;5032211;28;45486;-74
2022/03/21 05:15:57;;;;;;;;;4.67;2.33;;;;;-146.25;100.00;57879.81;5037936;28;45563;-74
2022/03/21 05:18:22;;;;;;;;;8.50;7.25;;;;;-146.25;100.00;57879.81;5036269;28;46347;-74
2022/03/21 05:20:48;;;;;;;;;6.25;6.25;;;;;-146.25;100.00;57879.81;5037925;28;45342;-75
2022/03/21 05:31:26;;;;;;;;;1.75;1.75;;;;;-146.25;100.00;57879.81;5037516;28;45550;-74
2022/03/21 05:36:35;;;;;;;;;1.33;0.33;;;;;-146.25;100.00;57879.81;5038178;28;45383;-75
2022/03/21 05:39:02;;;;;;;;;0.33;0.00;;;;;-146.25;100.00;57879.81;5038014;28;45398;-74
2022/03/21 05:41:27;;;;;;;;;2.67;0.33;;;;;-146.25;100.00;57879.81;5037752;28;45422;-74
2022/03/21 05:43:53;;;;;;;;;2.00;1.33;;;;;-146.25;100.00;57879.81;5036098;28;45445;-75
2022/03/21 05:46:19;;;;;;;;;1.00;1.00;;;;;-146.25;100.00;57879.81;5035133;28;45363;-74
2022/03/21 05:48:51;;;;;;;;;2.00;2.00;;;;;-146.25;100.00;57879.81;5033516;28;47324;-74
2022/03/21 05:51:18;;;;;;;;;1.67;1.67;;;;;-146.25;100.00;57879.81;5035078;28;45528;-74
2022/03/21 05:53:48;;;;;;;;;2.33;2.00;;;;;-146.25;100.00;57879.81;5035068;28;45524;-77
2022/03/21 05:56:14;;;;;;;;;2.67;2.00;;;;;-146.25;100.00;57879.81;5032445;28;45662;-75
2022/03/21 05:58:41;;;;;;;;;7.00;7.00;;;;;-146.25;100.00;57879.81;5034573;28;45733;-74
2022/03/21 06:01:06;;;;;;;;;2.00;1.00;;;;;-146.25;100.00;57879.81;5034781;28;45664;-75
2022/03/21 06:03:32;;;;;;;;;2.33;1.67;;;;;-146.25;100.00;57879.81;5034121;28;45439;-75
2022/03/21 06:05:59;;;;;;;;;3.00;3.00;;;;;-146.25;100.00;57879.81;5034908;28;45664;-74
2022/03/21 06:08:25;;;;;;;;;5.00;4.50;;;;;-146.25;100.00;57879.81;5033436;28;45693;-74
2022/03/21 06:11:03;;;;;;;;;7.00;6.00;;;;;-146.25;100.00;57879.81;5036223;28;45512;-75
2022/03/21 06:13:33;;;;;;;;;3.00;1.00;;;;;-146.25;100.00;57879.81;5036760;28;45434;-75
2022/03/21 06:16:04;;;;;;;;;1.33;1.00;;;;;-146.25;100.00;57879.81;5052607;28;45430;-75
2022/03/21 06:18:32;;;;;;;;;1.33;1.33;;;;;-146.25;100.00;57879.81;5036771;28;46121;-75
2022/03/21 06:20:58;;;;;;;;;0.00;0.00;;;;;-146.25;100.00;57879.81;5035134;28;45452;-74
2022/03/21 06:23:24;;;;;;;;;0.00;0.00;;;;;-146.25;100.00;57879.81;5028957;28;45547;-75
2022/03/21 06:25:51;;;;;;;;;0.00;0.00;;;;;-146.25;100.00;57879.81;5036738;28;45524;-74
2022/03/21 06:28:17;;;;;;;;;0.00;0.00;;;;;-146.25;100.00;57879.81;5036511;28;45784;-74
2022/03/21 06:30:42;;;;;;;;;1.00;0.00;;;;;-146.25;100.00;57879.81;5036678;28;45466;-74
2022/03/21 06:33:09;;;;;;;;;0.00;0.00;;;;;-146.25;100.00;57879.81;5036101;28;45517;-73
2022/03/21 06:35:34;;;;;;;;;0.00;0.00;;;;;-146.25;100.00;57879.81;5036482;28;45479;-74
2022/03/21 06:38:00;;;;;;;;;0.00;0.00;;;;;-146.25;100.00;57879.81;5036119;28;45513;-75
2022/03/21 06:40:26;;;;;;;;;0.00;0.00;;;;;-146.25;100.00;57879.81;5030971;28;45687;-75
2022/03/21 06:42:52;;;;;;;;;0.00;0.00;;;;;-146.25;100.00;57879.81;5033905;28;45450;-73
2022/03/21 06:45:18;;;;;;;;;1.33;1.00;;;;;-146.25;100.00;57879.81;5032124;28;45687;-77
2022/03/21 06:47:43;;;;;;;;;0.00;0.00;;;;;-146.25;100.00;57879.81;5034098;28;46464;-76
2022/03/21 06:50:10;;;;;;;;;1.67;1.00;;;;;-146.25;100.00;57879.81;5035656;28;45486;-77
2022/03/21 06:52:39;;;;;;;;;0.00;0.00;;;;;-146.25;100.00;57879.81;5034363;28;45553;-77
2022/03/21 06:55:08;;;;;;;;;1.00;0.00;;;;;-146.25;100.00;57879.81;5051309;28;45417;-76
2022/03/21 06:57:33;;;;;;;;;2.00;1.00;;;;;-146.25;100.00;57879.81;5035945;28;46613;-76
2022/03/21 07:00:00;;;;;;;;;0.00;0.00;;;;;-146.25;100.00;57879.81;5035229;28;45431;-77
2022/03/21 07:02:28;;;;;;;;;5.00;4.67;;;;;-146.25;100.00;57879.81;5035318;28;45366;-77
2022/03/21 07:04:54;;;;;;;;;1.00;1.00;;;;;-146.25;100.00;57879.81;5031066;28;45578;-77
2022/03/21 07:07:20;;;;;;;;;1.33;0.00;;;;;-146.25;100.00;57879.81;5016123;28;47057;-77
2022/03/21 07:09:45;;;;;;;;;1.00;1.00;;;;;-146.25;100.00;57879.81;5035110;28;45615;-77
2022/03/21 07:12:11;;;;;;;;;1.00;1.00;;;;;-146.25;100.00;57879.81;5038569;28;45369;-77
2022/03/21 07:14:36;;;;;;;;;1.67;0.67;;;;;-146.25;100.00;57879.81;5039244;28;45425;-77
2022/03/21 07:17:02;;;;;;;;;0.33;0.00;;;;;-146.25;100.00;57879.81;5029529;28;45456;-77
2022/03/21 07:19:28;;;;;;;;;1.00;1.00;;;;;-146.25;100.00;57879.81;5038461;28;45518;-77
2022/03/21 07:21:53;;;;;;;;;0.00;0.00;;;;;-146.25;100.00;57879.81;5038148;28;45990;-77
2022/03/21 07:24:19;;;;;;;;;1.00;0.67;;;;;-146.25;100.00;57879.81;5039645;28;45590;-75
2022/03/21 07:26:45;;;;;;;;;0.00;0.00;;;;;-146.25;100.00;57879.81;5038200;28;47260;-75
2022/03/21 07:29:12;;;;;;;;;2.00;1.00;;;;;-146.25;100.00;57879.81;5039783;28;45283;-75
2022/03/21 07:31:38;;;;;;;;;0.00;0.00;;;;;-146.25;100.00;57879.81;5039044;28;45558;-77
2022/03/21 07:34:05;;;;;;;;;1.67;1.67;;;;;-146.25;100.00;57879.81;5055079;28;45558;-75
2022/03/21 07:36:30;;;;;;;;;0.67;0.00;;;;;-146.25;100.00;57879.81;5039467;28;45439;-77
2022/03/21 07:38:57;;;;;;;;;1.00;0.00;;;;;-146.25;100.00;57879.81;5039389;28;45359;-78
2022/03/21 07:41:26;;;;;;;;;0.00;0.00;;;;;-146.25;100.00;57879.81;5039594;28;45397;-75
2022/03/21 07:43:52;;;;;;;;;0.67;0.00;;;;;-146.25;100.00;57879.81;5040128;28;45300;-74
2022/03/21 07:49:02;;;;;;;;;0.00;0.00;;;;;-146.25;100.00;57879.81;5038506;28;45499;-74
2022/03/21 07:51:27;;;;;;;;;0.00;0.00;;;;;-146.25;100.00;57879.81;5038509;28;45492;-75
2022/03/21 07:53:53;;;;;;;;;0.00;0.00;;;;;-146.25;100.00;57879.81;5038764;28;45414;-75
2022/03/21 07:56:19;;;;;;;;;0.00;0.00;;;;;-146.25;100.00;57879.81;5033609;28;45586;-76
2022/03/21 07:58:45;;;;;;;;;0.00;0.00;;;;;-146.25;100.00;57879.81;5038075;28;45388;-74
2022/03/21 08:01:10;;;;;;;;;0.00;0.00;;;;;-146.25;100.00;57879.81;5038622;28;46707;-73
2022/03/21 08:03:36;;;;;;;;;0.00;0.00;;;;;-146.25;100.00;57879.81;5038669;28;45458;-76
2022/03/21 08:06:02;;;;;;;;;0.00;0.00;;;;;-146.25;100.00;57879.81;5036941;28;47038;-77
2022/03/21 08:08:28;;;;;;;;;1.00;0.00;;;;;-146.25;100.00;57879.81;5038124;28;45516;-72
2022/03/21 08:10:55;;;;;;;;;0.00;0.00;;;;;-146.25;100.00;57879.81;5038066;28;45445;-74
2022/03/21 08:13:23;;;;;;;;;0.00;0.00;;;;;-146.25;100.00;57879.81;5038096;28;45525;-72
2022/03/21 08:15:48;;;;;;;;;0.00;0.00;;;;;-146.25;100.00;57879.81;5038714;28;45606;-72
2022/03/21 08:18:15;;;;;;;;;0.00;0.00;;;;;-146.25;100.00;57879.81;5037281;28;45544;-73
2022/03/21 08:20:43;;;;;;;;;2.67;0.67;;;;;-146.25;100.00;57879.81;5020982;28;45376;-73
2022/03/21 08:23:14;;;;;;;;;0.67;0.00;;;;;-146.25;100.00;57879.81;5031177;28;45372;-72
2022/03/21 08:25:45;;;;;;;;;2.00;1.00;;;;;-146.25;100.00;57879.81;5038083;28;45707;-72
2022/03/21 08:28:12;;;;;;;;;0.00;0.00;;;;;-146.25;100.00;57879.81;5035954;28;45411;-74
2022/03/21 08:30:39;;;;;;;;;0.00;0.00;;;;;-146.25;100.00;57879.81;5033693;28;45563;-73
2022/03/21 08:33:06;;;;;;;;;0.67;0.00;;;;;-146.25;100.00;57879.81;5036026;28;45624;-73
2022/03/21 08:35:35;;;;;;;;;0.00;0.00;;;;;-146.25;100.00;57879.81;5029136;28;45729;-73
2022/03/21 08:38:00;;;;;;;;;0.33;0.33;;;;;-146.25;100.00;57879.81;5055705;28;45481;-74
2022/03/21 08:40:26;;;;;;;;;0.67;0.00;;;;;-146.25;100.00;57879.81;5056643;28;45490;-74
2022/03/21 08:42:52;;;;;;;;;0.00;0.00;;;;;-146.25;100.00;57879.81;5055170;28;45564;-75
2022/03/21 08:45:18;;;;;;;;;0.00;0.00;;;;;-146.25;100.00;57879.81;5055660;28;46566;-73
2022/03/21 08:47:44;;;;;;;;;0.00;0.00;;;;;-146.25;100.00;57879.81;5072243;28;45671;-75
2022/03/21 08:50:11;;;;;;;;;0.00;0.00;;;;;-146.25;100.00;57879.81;5056316;28;45541;-73
2022/03/21 08:52:37;;;;;;;;;0.00;0.00;;;;;-146.25;100.00;57879.81;5056949;28;45489;-73
2022/03/21 08:55:06;;;;;;;;;0.00;0.00;;;;;-146.25;100.00;57879.81;5056216;28;45485;-75
2022/03/21 08:57:32;;;;;;;;;0.00;0.00;;;;;-146.25;100.00;57879.81;5055732;28;45773;-73
2022/03/21 08:59:57;;;;;;;;;0.00;0.00;;;;;-146.25;100.00;57879.81;5051398;28;45467;-74
2022/03/21 09:02:23;;;;;;;;;0.00;0.00;;;;;-146.25;100.00;57879.81;5055100;28;45644;-73
2022/03/21 09:04:50;;;;;;;;;0.00;0.00;;;;;-146.25;100.00;57879.81;5056070;28;45778;-73
2022/03/21 09:07:16;;;;;;;;;0.00;0.00;;;;;-146.25;100.00;57879.81;5056233;28;45517;-73
2022/03/21 09:09:42;;;;;;;;;0.00;0.00;;;;;-146.25;100.00;57879.81;5072373;28;45546;-75
2022/03/21 09:12:09;;;;;;;;;0.00;0.00;;;;;-146.25;100.00;57879.81;5054348;28;45685;-74
2022/03/21 09:14:35;;;;;;;;;0.00;0.00;;;;;-146.25;100.00;57879.81;5056262;28;45534;-74
2022/03/21 09:17:01;;;;;;;;;0.00;0.00;;;;;-146.25;100.00;57879.81;5055868;28;45651;-72
2022/03/21 09:19:29;;;;;;;;;0.00;0.00;;;;;-146.25;100.00;57879.81;5056632;28;45312;-72
2022/03/21 09:21:55;;;;;;;;;0.00;0.00;;;;;-146.25;100.00;57879.81;5056466;28;45461;-73
2022/03/21 09:24:22;;;;;;;;;0.00;0.00;;;;;-146.25;100.00;57879.81;5054890;28;46292;-72
2022/03/21 09:26:48;;;;;;;;;0.00;0.00;;;;;-146.25;100.00;57879.81;5048645;28;45468;-72
2022/03/21 09:29:14;;;;;;;;;1.33;1.00;;;;;-146.25;100.00;57879.81;5046911;28;45494;-72
2022/03/21 09:31:40;;;;;;;;;0.00;0.00;;;;;-146.25;100.00;57879.81;5056324;28;45342;-73
2022/03/21 09:34:10;;;;;;;;;0.00;0.00;;;;;-146.25;100.00;57879.81;5070505;28;45416;-72
2022/03/21 09:36:36;;;;;;;;;1.00;0.00;;;;;-146.25;100.00;57879.81;5055313;28;45465;-73
2022/03/21 09:39:03;;;;;;;;;0.00;0.00;;;;;-146.25;100.00;57879.81;5055215;28;45394;-75
2022/03/21 09:41:30;;;;;;;;;0.00;0.00;;;;;-146.25;100.00;57879.81;5055473;28;45479;-74
2022/03/21 09:43:58;;;;;;;;;0.00;0.00;;;;;-146.25;100.00;57879.81;5054090;28;46433;-74
2022/03/21 09:46:24;;;;;;;;;0.00;0.00;;;;;-146.25;100.00;57879.81;5055202;28;45542;-72
2022/03/21 09:48:52;;;;;;;;;1.00;1.00;;;;;-146.25;100.00;57879.81;5054121;28;45738;-72
2022/03/21 09:51:22;;;;;;;;;0.33;0.33;;;;;-146.25;100.00;57879.81;5054357;28;45634;-73
2022/03/21 09:53:48;;;;;;;;;0.00;0.00;;;;;-146.25;100.00;57879.81;5055562;28;45707;-73
2022/03/21 09:56:15;;;;;;;;;0.00;0.00;;;;;-146.25;100.00;57879.81;5054262;28;45529;-73
2022/03/21 09:58:41;;;;;;;;;1.00;0.67;;;;;-146.25;100.00;57879.81;5055385;28;45425;-73
2022/03/21 10:01:06;;;;;;;;;1.00;1.00;;;;;-146.25;100.00;57879.81;5055426;28;45627;-71
2022/03/21 10:03:35;;;;;;;;;0.00;0.00;;;;;-146.25;100.00;57879.81;5055276;28;45493;-72
2022/03/21 10:06:01;;;;;;;;;0.00;0.00;;;;;-146.25;100.00;57879.81;5053016;28;45351;-72
2022/03/21 10:08:28;;;;;;;;;0.00;0.00;;;;;-146.25;100.00;57879.81;5055039;28;45720;-72
2022/03/21 10:10:56;;;;;;;;;0.00;0.00;;;;;-146.25;100.00;57879.81;5053822;28;45480;-73
2022/03/21 10:13:27;;;;;;;;;0.00;0.00;;;;;-146.25;100.00;57879.81;5035230;28;45434;-73
2022/03/21 10:16:13;;;;;;;;;0.00;0.00;;;;;-146.25;100.00;57879.81;5035334;28;45419;-71
2022/03/21 10:18:56;;;;;;;;;0.00;0.00;;;;;-146.25;100.00;57879.81;5049263;28;45412;-73
2022/03/21 10:21:25;;;;;;;;;0.00;0.00;;;;;-146.25;100.00;57879.81;5056606;28;45316;-73
2022/03/21 10:24:10;;;;;;;;;0.00;0.00;;;;;-146.25;100.00;57879.81;5055042;28;47181;-74
2022/03/21 10:26:41;;;;;;;;;0.00;0.00;;;;;-146.25;100.00;57879.81;5052563;28;45568;-74
2022/03/21 10:29:10;;;;;;;;;1.00;0.00;;;;;-146.25;100.00;57879.81;5056152;28;45411;-73
2022/03/21 10:31:41;;;;;;;;;0.00;0.00;;;;;-146.25;100.00;57879.81;5055917;28;45688;-73
2022/03/21 10:34:12;;;;;;;;;0.00;0.00;;;;;-146.25;100.00;57879.81;5052014;28;45673;-74
2022/03/21 10:36:58;;;;;;;;;0.00;0.00;;;;;-146.25;100.00;57879.81;5054924;28;45559;-73
2022/03/21 10:39:24;;;;;;;;;0.67;0.00;;;;;-146.25;100.00;57879.81;5054669;28;45540;-74
2022/03/21 10:41:55;;;;;;;;;0.00;0.00;;;;;-146.25;100.00;57879.81;5053576;28;45511;-75
2022/03/21 10:44:21;;;;;;;;;0.00;0.00;;;;;-146.25;100.00;57879.81;5055693;28;46463;-71
2022/03/21 10:46:52;;;;;;;;;0.00;0.00;;;;;-146.25;100.00;57879.81;5054270;28;45450;-71
2022/03/21 10:49:29;;;;;;;;;1.00;0.00;;;;;-146.25;100.00;57879.81;5036145;28;45403;-72
2022/03/21 10:51:56;;;;;;;;;0.00;0.00;;;;;-146.25;100.00;57879.81;5036337;28;45691;-74
2022/03/21 10:54:48;;;;;;;;;0.00;0.00;;;;;-146.25;100.00;57879.81;5036077;28;46667;-76
2022/03/21 10:57:36;;;;;;;;;1.00;0.00;;;;;-146.25;100.00;57879.81;5036313;28;45413;-75
2022/03/21 11:00:20;;;;;;;;;1.00;0.00;;;;;-146.25;100.00;57879.81;5036731;28;45289;-73
2022/03/21 11:02:57;;;;;;;;;0.00;0.00;;;;;-146.25;100.00;57879.81;5037056;28;45551;-76
2022/03/21 11:05:25;;;;;;;;;0.00;0.00;;;;;-146.25;100.00;57879.81;5034843;28;45378;-73
2022/03/21 11:07:53;;;;;;;;;57.75;48.00;;;;;-146.25;100.00;57879.81;5036250;28;45365;-73
2022/03/21 11:10:20;;;;;;;;;3.00;2.33;;;;;-146.25;100.00;57879.81;5035329;28;45639;-73
2022/03/21 11:12:45;;;;;;;;;1.00;1.00;;;;;-146.25;100.00;57879.81;5036934;28;45326;-73
2022/03/21 11:15:13;;;;;;;;;1.00;1.00;;;;;-146.25;100.00;57879.81;5036116;28;46600;-73
2022/03/21 11:17:40;;;;;;;;;0.33;0.33;;;;;-146.25;100.00;57879.81;5051980;28;45517;-73
2022/03/21 11:20:06;;;;;;;;;0.00;0.00;;;;;-146.25;100.00;57879.81;5036617;28;45448;-73
2022/03/21 11:22:36;;;;;;;;;1.00;1.00;;;;;-146.25;100.00;57879.81;5036792;28;45290;-72
2022/03/21 11:25:05;;;;;;;;;1.00;0.67;;;;;-146.25;100.00;57879.81;5036353;28;46254;-73
2022/03/21 11:27:43;;;;;;;;;1.33;1.33;;;;;-146.25;100.00;57879.81;5051504;28;45500;-73
2022/03/21 11:30:22;;;;;;;;;3.00;3.00;;;;;-146.25;100.00;57879.81;5036239;28;45444;-72